Ames, IA

7:17 PM CDT on May 25, 2015 (GMT -0500)
Perry Municipal | | Change Station
CLOSE
Current Station
Airport
Location: Perry,
Elevation: 1014 ft
Nearby Weather Stations

Elev 1014 ft 41.83 °N, 94.16 °W | Updated 22 minutes ago

Partly Cloudy
Partly Cloudy
78 °F
Feels Like 78 °F
N
18
Wind Variable Wind from SSW
Gusts 23 mph

Today
High -- | Low -- °F
--% Chance of Precip.
Yesterday
High -- | Low -- °F
Precip. -- in
5:45 AM 8:37 PM
First Quarter, 53% visible
Pressure 29.76 in
Visibility 10.0 miles
Clouds Scattered Clouds 4100 ft
Scattered Clouds 4600 ft
Scattered Clouds 5000 ft
Dew Point 62 °F
Humidity 58%
Rainfall 0.03 in
Snow Depth Not available.
UV 1 out of 12
Pollen 1.80 out of 12
Air Quality Not available.
Flu Activity Sporadic
METAR KPRO 252355Z AUTO 20016G20KT 10SM SCT041 SCT046 SCT050 26/17 A2976 RMK AO2 T02550167 10262 20233

More Conditions Fewer Conditions

Pressure 29.76 in
Visibility 10.0 miles
Clouds Scattered Clouds 4100 ft
Scattered Clouds 4600 ft
Scattered Clouds 5000 ft
Dew Point 62 °F
Humidity 58%
Rainfall 0.03 in
Snow Depth Not available.
UV 1 out of 12
Pollen 1.80 out of 12
Air Quality Not available.
Flu Activity Sporadic
METAR KPRO 252355Z AUTO 20016G20KT 10SM SCT041 SCT046 SCT050 26/17 A2976 RMK AO2 T02550167 10262 20233

More Conditions Fewer Conditions

10-Day Weather Forecast

Almanac

Astronomy

May. 25, 2015 Rise Set
Actual Time
Civil Twilight
Nautical Twilight
Astronomical Twilight
Moon
Length of Visible Light
Length of Day
Tomorrow will be .
, % of the Moon is Illuminated

Today's Extremes

State Highs State Lows

Community

WunderPhotos

Upload Photos

1,824,185 photos uploaded!

WunderBlogs® & News

Nearby

Air Quality

  Air Quality AQ Index Pollutant
Not available.

Snow Depth

Station Depth Elevation

Earthquake Activity

City Distance Mag. Time & Date
Minimum magnitude displayed is 2.5.

Coastal Water Temperatures

Place Temperature

Stations

Nearby Weather Stations

Station Location Temp. Windchill Dew Point Humidity Wind Precip. Elev Updated Type